Albert, New Mexico
Current Conditions -  °F | °C
As of 8:53 AM on Thursday 23 Oct 2014 (Local Time) from KTCC Reporting Station
Clear Clear  
Wind Chill: 60°   Ceiling: Unl
Heat Index: 60°   Visibility: 10mi
Dew Point: 51°   Wind: 6mph
Humidity: 72%   Direction: 300°WNW
Pressure: 30.16"   Gusts: NA
Location:  35.7181°N, 103.591°W
Report Text: KTCC 231453Z AUTO 30005KT 10SM CLR 16/11 A3016 RMK AO2 SLP173 T01560106 53017
Loading
Personal Weather Stations






























Interactive Weather Map
Tropical Storm Tracking
New forecast layout! Learn more

10-Day Weather Forecast

Advertisements
Track Severe Weather on mobile